SHU5613 UHMM-UHHH
Flight info
| Callsign | SHU5613 |
|---|---|
| Flight time | N/A |
| Altitude | 38000 |
| Route | BANOT5E BANOT L160 NA N222 TOMSU TOMSU6G |
| Aircraft | A319/M-SDE3FGHIRWY/LB1 |
Departure
| Time | N/A |
|---|---|
| Airport | Sokol Airport (UHMM) |
Arrival
| Time | 2026-04-08 13:20 |
|---|---|
| Airport | Khabarovsk Novy Airport (UHHH) |
| Time | Latitude | Longitude | Altitude | Speed | Heading |
|---|---|---|---|---|---|
| 2026-04-08 11:57 | 55.23611 | 142.95675 | 37475 ft | 433 kts | 217° |
| 2026-04-08 11:58 | 55.18601 | 142.89828 | 37481 ft | 433 kts | 217° |
| 2026-04-08 11:58 | 55.13571 | 142.84034 | 37477 ft | 432 kts | 217° |
| 2026-04-08 11:59 | 55.08537 | 142.78267 | 37481 ft | 432 kts | 216° |
| 2026-04-08 11:59 | 55.03472 | 142.72483 | 37487 ft | 432 kts | 216° |
| 2026-04-08 12:00 | 54.98442 | 142.66745 | 37485 ft | 432 kts | 216° |
| 2026-04-08 12:00 | 54.93407 | 142.61023 | 37490 ft | 432 kts | 216° |
| 2026-04-08 12:01 | 54.88372 | 142.55308 | 37490 ft | 432 kts | 216° |
| 2026-04-08 12:01 | 54.83374 | 142.49645 | 37496 ft | 432 kts | 216° |
| 2026-04-08 12:02 | 54.78343 | 142.43972 | 37489 ft | 432 kts | 216° |
| 2026-04-08 12:02 | 54.73304 | 142.38303 | 37495 ft | 431 kts | 216° |
| 2026-04-08 12:03 | 54.68233 | 142.32618 | 37500 ft | 431 kts | 216° |
| 2026-04-08 12:03 | 54.63195 | 142.26988 | 37500 ft | 431 kts | 216° |
| 2026-04-08 12:04 | 54.58152 | 142.21375 | 37500 ft | 431 kts | 216° |
| 2026-04-08 12:04 | 54.53111 | 142.15772 | 37502 ft | 431 kts | 216° |
| 2026-04-08 12:05 | 54.48069 | 142.10180 | 37508 ft | 431 kts | 216° |
| 2026-04-08 12:05 | 54.43017 | 142.04621 | 37514 ft | 431 kts | 216° |
| 2026-04-08 12:06 | 54.37970 | 141.99074 | 37515 ft | 431 kts | 216° |
| 2026-04-08 12:06 | 54.32930 | 141.93529 | 37515 ft | 430 kts | 216° |
| 2026-04-08 12:07 | 54.27886 | 141.88015 | 37515 ft | 430 kts | 216° |
| 2026-04-08 12:07 | 54.22837 | 141.82504 | 37515 ft | 430 kts | 216° |
| 2026-04-08 12:08 | 54.15268 | 141.74259 | 37517 ft | 430 kts | 216° |
| 2026-04-08 12:08 | 54.10217 | 141.68801 | 37512 ft | 430 kts | 216° |
| 2026-04-08 12:09 | 54.05164 | 141.63349 | 37514 ft | 430 kts | 216° |
| 2026-04-08 12:09 | 54.00119 | 141.57903 | 37516 ft | 429 kts | 216° |
| 2026-04-08 12:10 | 53.95074 | 141.52476 | 37525 ft | 429 kts | 216° |
| 2026-04-08 12:10 | 53.90018 | 141.47081 | 37519 ft | 429 kts | 216° |
| 2026-04-08 12:11 | 53.84960 | 141.41690 | 37514 ft | 429 kts | 216° |
| 2026-04-08 12:11 | 53.79911 | 141.36306 | 37519 ft | 429 kts | 216° |
| 2026-04-08 12:12 | 53.74857 | 141.30937 | 37520 ft | 429 kts | 216° |
| 2026-04-08 12:12 | 53.69804 | 141.25592 | 37517 ft | 428 kts | 216° |
| 2026-04-08 12:13 | 53.65603 | 141.21157 | 37515 ft | 428 kts | 216° |
| 2026-04-08 12:13 | 53.60543 | 141.15835 | 37515 ft | 428 kts | 216° |
| 2026-04-08 12:14 | 53.54666 | 141.09659 | 37512 ft | 428 kts | 216° |
| 2026-04-08 12:14 | 53.50430 | 141.05228 | 37512 ft | 428 kts | 216° |
| 2026-04-08 12:15 | 53.45364 | 140.99955 | 37510 ft | 428 kts | 216° |
| 2026-04-08 12:15 | 53.40304 | 140.94689 | 37515 ft | 428 kts | 216° |
| 2026-04-08 12:16 | 53.35244 | 140.89431 | 37516 ft | 428 kts | 216° |
| 2026-04-08 12:16 | 53.30180 | 140.84186 | 37517 ft | 428 kts | 216° |
| 2026-04-08 12:17 | 53.25111 | 140.78945 | 37515 ft | 428 kts | 216° |
| 2026-04-08 12:17 | 53.20044 | 140.73729 | 37513 ft | 428 kts | 215° |
| 2026-04-08 12:18 | 53.14997 | 140.68496 | 37510 ft | 426 kts | 219° |
| 2026-04-08 12:18 | 53.10252 | 140.62597 | 37508 ft | 425 kts | 220° |
| 2026-04-08 12:19 | 53.05510 | 140.56705 | 37508 ft | 425 kts | 220° |
| 2026-04-08 12:19 | 53.00769 | 140.50842 | 37506 ft | 425 kts | 220° |
| 2026-04-08 12:20 | 52.96029 | 140.44985 | 37506 ft | 425 kts | 220° |
| 2026-04-08 12:20 | 52.91284 | 140.39138 | 37507 ft | 425 kts | 220° |
| 2026-04-08 12:21 | 52.86540 | 140.33293 | 37504 ft | 425 kts | 220° |
| 2026-04-08 12:21 | 52.81799 | 140.27460 | 37500 ft | 424 kts | 220° |
| 2026-04-08 12:22 | 52.77054 | 140.21654 | 37500 ft | 425 kts | 220° |
| 2026-04-08 12:22 | 52.72303 | 140.15857 | 37503 ft | 425 kts | 220° |
| 2026-04-08 12:23 | 52.67573 | 140.10124 | 37499 ft | 424 kts | 220° |
| 2026-04-08 12:23 | 52.62784 | 140.04330 | 37493 ft | 425 kts | 220° |
| 2026-04-08 12:24 | 52.57974 | 139.98788 | 37494 ft | 426 kts | 218° |
| 2026-04-08 12:24 | 52.53024 | 139.93312 | 37492 ft | 426 kts | 218° |
| 2026-04-08 12:25 | 52.47984 | 139.87728 | 37494 ft | 426 kts | 219° |
| 2026-04-08 12:25 | 52.43086 | 139.82258 | 37489 ft | 425 kts | 219° |
| 2026-04-08 12:26 | 52.38133 | 139.76719 | 37502 ft | 426 kts | 219° |
| 2026-04-08 12:26 | 52.33199 | 139.71239 | 37495 ft | 426 kts | 219° |
| 2026-04-08 12:27 | 52.28266 | 139.65783 | 37506 ft | 425 kts | 219° |
| 2026-04-08 12:27 | 52.23298 | 139.60297 | 37497 ft | 425 kts | 219° |
| 2026-04-08 12:28 | 52.18391 | 139.54882 | 37503 ft | 425 kts | 219° |
| 2026-04-08 12:28 | 52.13464 | 139.49455 | 37499 ft | 425 kts | 219° |
| 2026-04-08 12:29 | 52.08598 | 139.43809 | 37498 ft | 423 kts | 222° |
| 2026-04-08 12:29 | 52.03947 | 139.37883 | 37497 ft | 422 kts | 223° |
| 2026-04-08 12:30 | 52.00064 | 139.32882 | 37496 ft | 422 kts | 223° |
| 2026-04-08 12:30 | 51.95420 | 139.27052 | 37488 ft | 422 kts | 223° |
| 2026-04-08 12:31 | 51.90715 | 139.21225 | 37491 ft | 422 kts | 222° |
| 2026-04-08 12:31 | 51.86012 | 139.15414 | 37490 ft | 422 kts | 223° |
| 2026-04-08 12:32 | 51.81316 | 139.09595 | 37486 ft | 422 kts | 223° |
| 2026-04-08 12:32 | 51.76682 | 139.03874 | 37487 ft | 422 kts | 223° |
| 2026-04-08 12:33 | 51.71974 | 138.98095 | 37482 ft | 423 kts | 223° |
| 2026-04-08 12:33 | 51.67293 | 138.92356 | 37482 ft | 422 kts | 223° |
| 2026-04-08 12:34 | 51.62614 | 138.86632 | 37481 ft | 422 kts | 223° |
| 2026-04-08 12:34 | 51.57932 | 138.80909 | 37477 ft | 422 kts | 223° |
| 2026-04-08 12:35 | 51.53249 | 138.75211 | 37476 ft | 422 kts | 223° |
| 2026-04-08 12:35 | 51.48551 | 138.69510 | 37480 ft | 422 kts | 223° |
| 2026-04-08 12:36 | 51.43870 | 138.63821 | 37475 ft | 422 kts | 223° |
| 2026-04-08 12:36 | 51.39147 | 138.58120 | 37475 ft | 422 kts | 223° |
| 2026-04-08 12:37 | 51.34485 | 138.52512 | 37474 ft | 422 kts | 223° |
| 2026-04-08 12:37 | 51.29758 | 138.46830 | 37476 ft | 422 kts | 223° |
| 2026-04-08 12:38 | 51.25057 | 138.41205 | 37476 ft | 422 kts | 223° |
| 2026-04-08 12:38 | 51.20353 | 138.35584 | 37475 ft | 422 kts | 223° |
| 2026-04-08 12:39 | 51.15658 | 138.29977 | 37485 ft | 422 kts | 223° |
| 2026-04-08 12:39 | 51.10958 | 138.24385 | 37480 ft | 422 kts | 223° |
| 2026-04-08 12:40 | 51.06215 | 138.18778 | 37476 ft | 422 kts | 223° |
| 2026-04-08 12:40 | 51.01505 | 138.13218 | 37480 ft | 422 kts | 223° |
| 2026-04-08 12:41 | 50.96796 | 138.07662 | 37480 ft | 422 kts | 223° |
| 2026-04-08 12:41 | 50.92093 | 138.02116 | 37478 ft | 422 kts | 223° |
| 2026-04-08 12:42 | 50.87380 | 137.96591 | 37479 ft | 421 kts | 223° |
| 2026-04-08 12:42 | 50.82641 | 137.91031 | 37480 ft | 421 kts | 223° |
| 2026-04-08 12:43 | 50.77928 | 137.85527 | 37482 ft | 421 kts | 223° |
| 2026-04-08 12:43 | 50.73210 | 137.80052 | 37484 ft | 421 kts | 223° |
| 2026-04-08 12:44 | 50.68495 | 137.74579 | 37486 ft | 420 kts | 223° |
| 2026-04-08 12:44 | 50.63759 | 137.69084 | 37482 ft | 420 kts | 223° |
| 2026-04-08 12:45 | 50.59049 | 137.63632 | 37482 ft | 420 kts | 223° |
| 2026-04-08 12:45 | 50.54343 | 137.58201 | 37480 ft | 419 kts | 223° |
| 2026-04-08 12:46 | 50.49636 | 137.52792 | 37478 ft | 419 kts | 223° |
| 2026-04-08 12:46 | 50.44928 | 137.47403 | 37478 ft | 419 kts | 223° |
| 2026-04-08 12:47 | 50.40219 | 137.42021 | 37117 ft | 418 kts | 223° |
| 2026-04-08 12:47 | 50.37866 | 137.39339 | 36855 ft | 418 kts | 223° |
| 2026-04-08 12:47 | 50.35518 | 137.36664 | 36594 ft | 417 kts | 223° |
| 2026-04-08 12:48 | 50.33138 | 137.33953 | 36336 ft | 417 kts | 223° |
| 2026-04-08 12:48 | 50.30794 | 137.31286 | 36083 ft | 417 kts | 223° |
| 2026-04-08 12:48 | 50.28448 | 137.28620 | 35833 ft | 417 kts | 223° |
| 2026-04-08 12:48 | 50.26068 | 137.25923 | 35573 ft | 415 kts | 223° |
| 2026-04-08 12:49 | 50.23744 | 137.23294 | 35130 ft | 411 kts | 223° |
| 2026-04-08 12:49 | 50.21439 | 137.20689 | 34654 ft | 408 kts | 223° |
| 2026-04-08 12:49 | 50.19888 | 137.18935 | 34329 ft | 406 kts | 223° |
| 2026-04-08 12:49 | 50.17583 | 137.16329 | 33844 ft | 403 kts | 223° |
| 2026-04-08 12:50 | 50.15326 | 137.13782 | 33339 ft | 400 kts | 224° |
| 2026-04-08 12:50 | 50.13048 | 137.11215 | 32829 ft | 396 kts | 224° |
| 2026-04-08 12:50 | 50.10826 | 137.08717 | 32368 ft | 391 kts | 224° |
| 2026-04-08 12:50 | 50.08619 | 137.06237 | 31902 ft | 386 kts | 224° |
| 2026-04-08 12:51 | 50.06413 | 137.03758 | 31438 ft | 381 kts | 224° |
| 2026-04-08 12:51 | 50.04277 | 137.01361 | 31000 ft | 376 kts | 224° |
| 2026-04-08 12:51 | 50.02210 | 136.99046 | 30574 ft | 372 kts | 224° |
| 2026-04-08 12:51 | 50.00096 | 136.96681 | 30147 ft | 367 kts | 224° |
| 2026-04-08 12:52 | 49.98036 | 136.94380 | 29734 ft | 362 kts | 225° |
| 2026-04-08 12:52 | 49.95978 | 136.92084 | 29276 ft | 357 kts | 225° |
| 2026-04-08 12:52 | 49.94005 | 136.89884 | 28887 ft | 351 kts | 225° |
| 2026-04-08 12:52 | 49.92033 | 136.87689 | 28506 ft | 345 kts | 225° |
| 2026-04-08 12:53 | 49.90068 | 136.85505 | 28128 ft | 340 kts | 225° |
| 2026-04-08 12:53 | 49.88136 | 136.83354 | 27764 ft | 335 kts | 225° |
| 2026-04-08 12:53 | 49.86260 | 136.81268 | 27412 ft | 329 kts | 225° |
| 2026-04-08 12:53 | 49.84384 | 136.79186 | 27043 ft | 324 kts | 225° |
| 2026-04-08 12:54 | 49.82547 | 136.77149 | 26687 ft | 319 kts | 225° |
| 2026-04-08 12:54 | 49.80734 | 136.75143 | 26331 ft | 313 kts | 225° |
| 2026-04-08 12:54 | 49.78975 | 136.73195 | 25969 ft | 309 kts | 225° |
| 2026-04-08 12:54 | 49.77238 | 136.71274 | 25616 ft | 304 kts | 225° |
| 2026-04-08 12:55 | 49.75508 | 136.69363 | 25259 ft | 300 kts | 225° |
| 2026-04-08 12:55 | 49.73822 | 136.67503 | 24898 ft | 296 kts | 225° |
| 2026-04-08 12:55 | 49.72149 | 136.65655 | 24545 ft | 294 kts | 225° |
| 2026-04-08 12:55 | 49.70467 | 136.63794 | 24170 ft | 292 kts | 225° |
| 2026-04-08 12:56 | 49.68819 | 136.61971 | 23798 ft | 291 kts | 225° |
| 2026-04-08 12:56 | 49.67176 | 136.60161 | 23438 ft | 289 kts | 225° |
| 2026-04-08 12:56 | 49.65520 | 136.58340 | 23061 ft | 288 kts | 225° |
| 2026-04-08 12:56 | 49.63897 | 136.56558 | 22656 ft | 286 kts | 225° |
| 2026-04-08 12:57 | 49.62279 | 136.54785 | 22286 ft | 284 kts | 224° |
| 2026-04-08 12:57 | 49.60670 | 136.53025 | 21932 ft | 282 kts | 224° |
| 2026-04-08 12:57 | 49.59073 | 136.51277 | 21587 ft | 281 kts | 224° |
| 2026-04-08 12:57 | 49.57462 | 136.49515 | 21231 ft | 279 kts | 224° |
| 2026-04-08 12:58 | 49.55862 | 136.47768 | 20884 ft | 278 kts | 224° |
| 2026-04-08 12:58 | 49.54282 | 136.46045 | 20545 ft | 277 kts | 224° |
| 2026-04-08 12:58 | 49.52716 | 136.44335 | 20206 ft | 275 kts | 224° |
| 2026-04-08 12:58 | 49.51155 | 136.42633 | 19870 ft | 274 kts | 224° |
| 2026-04-08 12:59 | 49.49601 | 136.40944 | 19535 ft | 273 kts | 223° |
| 2026-04-08 12:59 | 49.48053 | 136.39262 | 19203 ft | 272 kts | 223° |
| 2026-04-08 12:59 | 49.46512 | 136.37582 | 18874 ft | 270 kts | 223° |
| 2026-04-08 12:59 | 49.44963 | 136.35888 | 18541 ft | 269 kts | 223° |
| 2026-04-08 13:00 | 49.43437 | 136.34221 | 18222 ft | 268 kts | 223° |
| 2026-04-08 13:00 | 49.41899 | 136.32545 | 17888 ft | 267 kts | 223° |
| 2026-04-08 13:00 | 49.40876 | 136.31433 | 17652 ft | 266 kts | 223° |
| 2026-04-08 13:00 | 49.39367 | 136.29798 | 17312 ft | 265 kts | 222° |
| 2026-04-08 13:01 | 49.37844 | 136.28148 | 17011 ft | 264 kts | 222° |
| 2026-04-08 13:01 | 49.36332 | 136.26507 | 16675 ft | 263 kts | 222° |
| 2026-04-08 13:01 | 49.34798 | 136.24847 | 16356 ft | 262 kts | 222° |
| 2026-04-08 13:01 | 49.33289 | 136.23220 | 16044 ft | 261 kts | 221° |
| 2026-04-08 13:02 | 49.31807 | 136.21623 | 15739 ft | 260 kts | 221° |
| 2026-04-08 13:02 | 49.30328 | 136.20033 | 15437 ft | 259 kts | 221° |
| 2026-04-08 13:02 | 49.28853 | 136.18447 | 15138 ft | 259 kts | 221° |
| 2026-04-08 13:02 | 49.27364 | 136.16845 | 14834 ft | 258 kts | 221° |
| 2026-04-08 13:03 | 49.25899 | 136.15264 | 14535 ft | 257 kts | 221° |
| 2026-04-08 13:03 | 49.24436 | 136.13686 | 14237 ft | 257 kts | 221° |
| 2026-04-08 13:03 | 49.22979 | 136.12115 | 13934 ft | 256 kts | 221° |
| 2026-04-08 13:03 | 49.21525 | 136.10550 | 13639 ft | 255 kts | 220° |
| 2026-04-08 13:04 | 49.20072 | 136.08993 | 13344 ft | 255 kts | 220° |
| 2026-04-08 13:04 | 49.18623 | 136.07438 | 13020 ft | 254 kts | 220° |
| 2026-04-08 13:04 | 49.17180 | 136.05887 | 12714 ft | 253 kts | 220° |
| 2026-04-08 13:04 | 49.15724 | 136.04326 | 12403 ft | 252 kts | 220° |
| 2026-04-08 13:05 | 49.14293 | 136.02794 | 12109 ft | 251 kts | 220° |
| 2026-04-08 13:05 | 49.12866 | 136.01268 | 11810 ft | 250 kts | 219° |
| 2026-04-08 13:05 | 49.11441 | 135.99745 | 11505 ft | 250 kts | 219° |
| 2026-04-08 13:05 | 49.10000 | 135.98206 | 11188 ft | 249 kts | 219° |
| 2026-04-08 13:06 | 49.08580 | 135.96690 | 10881 ft | 249 kts | 219° |
| 2026-04-08 13:06 | 49.07161 | 135.95177 | 10575 ft | 248 kts | 219° |
| 2026-04-08 13:06 | 49.05747 | 135.93671 | 10258 ft | 247 kts | 219° |
| 2026-04-08 13:06 | 49.04341 | 135.92173 | 9938 ft | 247 kts | 218° |
| 2026-04-08 13:07 | 49.02938 | 135.90679 | 9623 ft | 246 kts | 218° |
| 2026-04-08 13:07 | 49.01539 | 135.89193 | 9296 ft | 245 kts | 218° |
| 2026-04-08 13:07 | 49.00130 | 135.87693 | 8945 ft | 243 kts | 218° |
| 2026-04-08 13:07 | 48.98753 | 135.86227 | 8616 ft | 240 kts | 218° |
| 2026-04-08 13:08 | 48.97465 | 135.84660 | 8278 ft | 235 kts | 228° |
| 2026-04-08 13:08 | 48.96345 | 135.82862 | 7932 ft | 233 kts | 229° |
| 2026-04-08 13:08 | 48.95243 | 135.81104 | 7586 ft | 231 kts | 229° |
| 2026-04-08 13:08 | 48.94121 | 135.79317 | 7227 ft | 230 kts | 229° |
| 2026-04-08 13:09 | 48.93020 | 135.77566 | 6869 ft | 228 kts | 229° |
| 2026-04-08 13:09 | 48.91932 | 135.75831 | 6524 ft | 226 kts | 230° |
| 2026-04-08 13:09 | 48.90857 | 135.74131 | 6330 ft | 218 kts | 229° |
| 2026-04-08 13:09 | 48.89818 | 135.72501 | 6116 ft | 211 kts | 230° |
| 2026-04-08 13:10 | 48.88803 | 135.70914 | 5996 ft | 209 kts | 230° |
| 2026-04-08 13:10 | 48.87792 | 135.69330 | 5865 ft | 209 kts | 230° |
| 2026-04-08 13:10 | 48.86784 | 135.67752 | 5738 ft | 208 kts | 230° |
| 2026-04-08 13:10 | 48.85778 | 135.66178 | 5591 ft | 207 kts | 230° |
| 2026-04-08 13:11 | 48.84778 | 135.64616 | 5475 ft | 206 kts | 230° |
| 2026-04-08 13:11 | 48.83779 | 135.63056 | 5348 ft | 205 kts | 230° |
| 2026-04-08 13:11 | 48.82790 | 135.61506 | 5212 ft | 204 kts | 230° |
| 2026-04-08 13:11 | 48.81804 | 135.59962 | 5101 ft | 203 kts | 230° |
| 2026-04-08 13:12 | 48.80822 | 135.58433 | 5162 ft | 201 kts | 230° |
| 2026-04-08 13:12 | 48.78852 | 135.55237 | 5454 ft | 225 kts | 238° |
| 2026-04-08 13:12 | 48.77927 | 135.53217 | 5453 ft | 239 kts | 233° |
| 2026-04-08 13:13 | 48.76720 | 135.51392 | 5458 ft | 243 kts | 226° |
| 2026-04-08 13:13 | 48.75462 | 135.49675 | 5389 ft | 244 kts | 226° |
| 2026-04-08 13:13 | 48.74209 | 135.47959 | 5140 ft | 241 kts | 226° |
| 2026-04-08 13:13 | 48.72988 | 135.46277 | 4858 ft | 233 kts | 227° |
| 2026-04-08 13:14 | 48.71808 | 135.44649 | 4585 ft | 226 kts | 227° |
| 2026-04-08 13:14 | 48.70667 | 135.43074 | 4314 ft | 219 kts | 227° |
| 2026-04-08 13:14 | 48.69560 | 135.41549 | 4043 ft | 212 kts | 227° |
| 2026-04-08 13:14 | 48.68487 | 135.40071 | 3788 ft | 205 kts | 227° |
| 2026-04-08 13:15 | 48.67447 | 135.38640 | 3527 ft | 197 kts | 227° |
| 2026-04-08 13:15 | 48.66466 | 135.37291 | 3297 ft | 185 kts | 227° |
| 2026-04-08 13:15 | 48.65545 | 135.36025 | 3082 ft | 173 kts | 227° |
| 2026-04-08 13:15 | 48.64685 | 135.34845 | 2899 ft | 159 kts | 228° |
| 2026-04-08 13:16 | 48.63886 | 135.33747 | 2689 ft | 147 kts | 228° |
| 2026-04-08 13:16 | 48.63154 | 135.32741 | 2512 ft | 137 kts | 228° |
| 2026-04-08 13:16 | 48.62457 | 135.31783 | 2352 ft | 134 kts | 227° |
| 2026-04-08 13:16 | 48.61771 | 135.30840 | 2186 ft | 133 kts | 226° |
| 2026-04-08 13:17 | 48.61085 | 135.29898 | 2020 ft | 133 kts | 226° |
| 2026-04-08 13:17 | 48.60404 | 135.28960 | 1856 ft | 133 kts | 225° |
| 2026-04-08 13:17 | 48.59719 | 135.28020 | 1680 ft | 133 kts | 224° |
| 2026-04-08 13:17 | 48.59037 | 135.27083 | 1511 ft | 132 kts | 223° |
| 2026-04-08 13:18 | 48.58356 | 135.26150 | 1344 ft | 132 kts | 221° |
| 2026-04-08 13:18 | 48.57675 | 135.25219 | 1177 ft | 132 kts | 221° |
| 2026-04-08 13:18 | 48.56990 | 135.24272 | 975 ft | 134 kts | 220° |
| 2026-04-08 13:18 | 48.56521 | 135.23633 | 856 ft | 134 kts | 220° |
| 2026-04-08 13:19 | 48.55834 | 135.22697 | 686 ft | 132 kts | 219° |
| 2026-04-08 13:19 | 48.55156 | 135.21774 | 567 ft | 130 kts | 219° |
| 2026-04-08 13:19 | 48.54480 | 135.20848 | 408 ft | 130 kts | 220° |
| 2026-04-08 13:19 | 48.53790 | 135.19909 | 248 ft | 128 kts | 220° |
| 2026-04-08 13:20 | 48.53227 | 135.19140 | 233 ft | 87 kts | 222° |
| 2026-04-08 13:20 | 48.52871 | 135.18650 | 235 ft | 59 kts | 223° |
| 2026-04-08 13:20 | 48.52586 | 135.18261 | 234 ft | 51 kts | 221° |
| 2026-04-08 13:20 | 48.52370 | 135.17970 | 234 ft | 33 kts | 222° |
| 2026-04-08 13:21 | 48.52279 | 135.17817 | 236 ft | 12 kts | 269° |
| 2026-04-08 13:21 | 48.52332 | 135.17715 | 236 ft | 13 kts | 313° |
| 2026-04-08 13:21 | 48.52374 | 135.17647 | 235 ft | 13 kts | 311° |
| 2026-04-08 13:21 | 48.52453 | 135.17513 | 236 ft | 13 kts | 311° |
| 2026-04-08 13:22 | 48.52495 | 135.17444 | 236 ft | 8 kts | 313° |
| 2026-04-08 13:22 | 48.52516 | 135.17374 | 235 ft | 4 kts | 256° |
| 2026-04-08 13:22 | 48.52497 | 135.17341 | 237 ft | 5 kts | 220° |
| 2026-04-08 13:22 | 48.52467 | 135.17303 | 235 ft | 6 kts | 220° |
| 2026-04-08 13:23 | 48.52436 | 135.17247 | 235 ft | 8 kts | 257° |
| 2026-04-08 13:23 | 48.52462 | 135.17190 | 236 ft | 5 kts | 314° |
| 2026-04-08 13:23 | 48.52480 | 135.17159 | 237 ft | 3 kts | 311° |
| 2026-04-08 13:23 | 48.52485 | 135.17150 | 235 ft | 0 kts | 310° |